Time;durP1;ratioP1;P1;durP2;ratioP2;P2;SDS_P1;SDS_P2;PMS_P1;PMS_P2;Temp;Humidity;BMP_temperature;BMP_pressure;BME280_temperature;BME280_humidity;BME280_pressure;Samples;Min_cycle;Max_cycle;Signal;HPM_P1;HPM_P2
2022/07/03 00:00:06;;;;;;;4.10;3.80;;;;;;;13.80;100.00;101373.50;4930841;29;20092;-78
2022/07/03 00:02:33;;;;;;;4.22;3.78;;;;;;;13.75;100.00;101370.06;4917684;29;20103;-77
2022/07/03 00:05:00;;;;;;;5.20;4.35;;;;;;;13.74;100.00;101368.31;4934925;29;20099;-78
2022/07/03 00:07:26;;;;;;;4.43;4.03;;;;;;;13.72;100.00;101371.00;4915123;29;20514;-78
2022/07/03 00:09:53;;;;;;;4.43;4.03;;;;;;;13.71;100.00;101373.69;4912434;29;20048;-78
2022/07/03 00:12:20;;;;;;;4.40;3.63;;;;;;;13.66;100.00;101373.78;4929112;29;20110;-79
2022/07/03 00:14:48;;;;;;;4.18;3.78;;;;;;;13.66;100.00;101373.78;4939475;28;20178;-78
2022/07/03 00:17:15;;;;;;;4.47;4.07;;;;;;;13.60;100.00;101362.41;4938181;28;20039;-79
2022/07/03 00:19:42;;;;;;;7.88;4.22;;;;;;;13.56;100.00;101372.25;4935449;29;20044;-79
2022/07/03 00:22:11;;;;;;;4.80;4.30;;;;;;;13.55;100.00;101365.19;4936632;29;20106;-79
2022/07/03 00:24:48;;;;;;;5.07;4.68;;;;;;;13.55;100.00;101364.31;4948762;28;20046;-78
2022/07/03 00:27:16;;;;;;;5.68;4.07;;;;;;;13.51;100.00;101360.84;4922225;28;20047;-79
2022/07/03 00:29:44;;;;;;;5.00;4.28;;;;;;;13.50;100.00;101357.31;4917024;29;20048;-78
2022/07/03 00:32:14;;;;;;;4.25;3.95;;;;;;;13.47;100.00;101364.47;4917881;28;20048;-79
2022/07/03 00:34:42;;;;;;;3.92;3.53;;;;;;;13.39;100.00;101367.28;4914207;29;20051;-79
2022/07/03 00:37:10;;;;;;;4.57;4.18;;;;;;;13.35;100.00;101356.75;4916361;29;20043;-78
2022/07/03 00:39:39;;;;;;;5.13;4.40;;;;;;;13.33;100.00;101350.63;4949290;28;20039;-78
2022/07/03 00:42:08;;;;;;;4.80;4.30;;;;;;;13.32;100.00;101351.53;4933784;29;20286;-78
2022/07/03 00:44:43;;;;;;;4.47;4.07;;;;;;;13.27;100.00;101354.25;4938280;28;20069;-77
2022/07/03 00:47:12;;;;;;;4.68;4.28;;;;;;;13.26;100.00;101347.19;4937650;29;20050;-78
2022/07/03 00:49:40;;;;;;;4.80;4.38;;;;;;;13.24;100.00;101341.94;4934494;28;20046;-79
2022/07/03 00:52:08;;;;;;;4.50;4.10;;;;;;;13.24;100.00;101341.94;4918484;29;20047;-78
2022/07/03 00:54:35;;;;;;;4.53;3.63;;;;;;;13.21;100.00;101331.41;4932285;29;20054;-77
2022/07/03 00:57:03;;;;;;;4.30;3.90;;;;;;;13.20;100.00;101334.06;4933902;29;20469;-78
2022/07/03 00:59:29;;;;;;;5.20;4.78;;;;;;;13.21;100.00;101336.69;4920679;28;21525;-78
2022/07/03 01:02:05;;;;;;;6.40;4.35;;;;;;;13.22;100.00;101333.13;4950483;28;20051;-78
2022/07/03 01:04:56;;;;;;;6.75;5.22;;;;;;;13.21;100.00;101328.75;4937733;28;20039;-78
2022/07/03 01:08:00;;;;;;;4.55;4.15;;;;;;;13.16;100.00;101325.25;4905710;28;20044;-78
2022/07/03 01:10:42;;;;;;;5.93;5.05;;;;;;;13.14;100.00;101327.09;4931055;28;20047;-78
2022/07/03 01:13:32;;;;;;;5.10;4.20;;;;;;;13.09;100.00;101318.34;4926887;28;20043;-78
2022/07/03 01:16:35;;;;;;;5.30;4.30;;;;;;;13.01;100.00;101320.25;4946765;28;20047;-78
2022/07/03 01:19:36;;;;;;;5.00;4.50;;;;;;;13.01;100.00;101322.91;4939384;28;20122;-78
2022/07/03 01:22:20;;;;;;;4.68;4.28;;;;;;;12.94;100.00;101321.28;4935252;29;20042;-77
2022/07/03 01:25:02;;;;;;;4.85;4.35;;;;;;;12.93;100.00;101322.19;4930602;29;20054;-79
2022/07/03 01:27:55;;;;;;;5.45;4.88;;;;;;;12.87;100.00;101317.91;4936406;28;20151;-79
2022/07/03 01:30:23;;;;;;;5.57;5.03;;;;;;;12.84;100.00;101317.06;4932368;28;20067;-78
2022/07/03 01:32:59;;;;;;;5.28;4.78;;;;;;;12.82;100.00;101314.44;4922037;29;20043;-79
2022/07/03 01:35:39;;;;;;;5.50;5.00;;;;;;;12.77;100.00;101308.34;4921782;28;20051;-77
2022/07/03 01:38:11;;;;;;;5.70;4.88;;;;;;;12.74;100.00;101311.06;4902531;29;20592;-77
2022/07/03 01:40:40;;;;;;;5.20;4.70;;;;;;;12.67;100.00;101306.78;4935085;28;20035;-79
2022/07/03 01:43:11;;;;;;;5.40;4.38;;;;;;;12.66;100.00;101307.69;4936996;29;20039;-79
2022/07/03 01:45:43;;;;;;;5.35;4.88;;;;;;;12.62;100.00;101303.38;4923367;29;20465;-78
2022/07/03 01:48:11;;;;;;;6.82;5.20;;;;;;;12.63;100.00;101299.81;4921185;28;20138;-78
2022/07/03 01:50:39;;;;;;;4.43;4.05;;;;;;;12.58;100.00;101301.66;4927998;29;20042;-79
2022/07/03 01:53:07;;;;;;;5.38;4.88;;;;;;;12.55;100.00;101299.94;4921247;29;20046;-81
2022/07/03 01:55:35;;;;;;;5.05;4.43;;;;;;;12.53;100.00;101301.75;4919402;28;20113;-78
2022/07/03 01:58:01;;;;;;;5.03;4.38;;;;;;;12.50;100.00;101295.63;4935832;29;20508;-79
2022/07/03 02:00:29;;;;;;;6.05;5.22;;;;;;;12.48;100.00;101302.72;4927110;28;20032;-77
2022/07/03 02:02:58;;;;;;;7.38;5.80;;;;;;;12.49;100.00;101299.19;4922916;29;20078;-79
2022/07/03 02:05:35;;;;;;;5.97;5.18;;;;;;;12.48;100.00;101302.72;4934447;28;20071;-78
2022/07/03 02:08:17;;;;;;;6.40;4.93;;;;;;;12.45;100.00;101300.16;4919193;29;20051;-78
2022/07/03 02:11:04;;;;;;;5.30;4.65;;;;;;;12.41;100.00;101291.38;4948703;28;20044;-78
2022/07/03 02:13:55;;;;;;;5.20;4.60;;;;;;;12.39;100.00;101299.34;4922697;28;20062;-77
2022/07/03 02:16:24;;;;;;;6.57;4.75;;;;;;;12.34;100.00;101305.63;4942319;28;20439;-79
2022/07/03 02:19:03;;;;;;;5.82;5.18;;;;;;;12.29;100.00;101299.53;4928737;29;20043;-79
2022/07/03 02:21:30;;;;;;;6.80;4.80;;;;;;;12.29;100.00;101303.06;4918942;28;20513;-76
2022/07/03 02:24:19;;;;;;;5.28;4.78;;;;;;;12.23;100.00;101297.00;4954814;28;20051;-78
2022/07/03 02:27:05;;;;;;;5.53;5.03;;;;;;;12.26;100.00;101295.16;4934967;29;20058;-76
2022/07/03 02:29:36;;;;;;;5.55;5.05;;;;;;;12.20;100.00;101292.63;4922952;29;20496;-78
2022/07/03 02:32:04;;;;;;;5.82;4.97;;;;;;;12.20;100.00;101289.09;4928023;29;20043;-77
2022/07/03 02:34:33;;;;;;;5.97;5.47;;;;;;;12.16;100.00;101293.56;4922109;28;20043;-77
2022/07/03 02:37:10;;;;;;;5.55;5.05;;;;;;;12.17;100.00;101294.44;4950942;28;20050;-76
2022/07/03 02:40:00;;;;;;;5.30;4.80;;;;;;;12.23;100.00;101297.00;4932241;29;20051;-79
2022/07/03 02:42:55;;;;;;;5.45;4.95;;;;;;;12.19;100.00;101298.84;4933253;28;20043;-76
2022/07/03 02:45:22;;;;;;;6.35;5.15;;;;;;;12.17;100.00;101294.44;4928166;28;20133;-76
2022/07/03 02:48:07;;;;;;;5.60;5.10;;;;;;;12.15;100.00;101294.47;4930810;29;20047;-76
2022/07/03 02:50:35;;;;;;;5.53;5.03;;;;;;;12.13;100.00;101296.28;4929933;29;20043;-78
2022/07/03 02:53:19;;;;;;;6.63;5.22;;;;;;;12.18;100.00;101299.69;4948293;28;20043;-77
2022/07/03 02:55:46;;;;;;;6.82;6.18;;;;;;;12.19;100.00;101300.56;4947101;28;20093;-79
2022/07/03 02:58:42;;;;;;;7.20;6.18;;;;;;;12.18;100.00;101294.41;4929311;28;20050;-77
2022/07/03 03:01:15;;;;;;;6.40;5.80;;;;;;;12.12;100.00;101297.19;4927666;28;20466;-76
2022/07/03 03:04:08;;;;;;;7.10;6.20;;;;;;;12.14;100.00;101292.72;4936828;28;20059;-76
2022/07/03 03:06:37;;;;;;;5.70;5.10;;;;;;;12.10;100.00;101289.22;4929806;28;20047;-76
2022/07/03 03:09:04;;;;;;;6.22;5.60;;;;;;;12.09;100.00;101294.56;4917890;29;20043;-79
2022/07/03 03:11:45;;;;;;;5.55;4.93;;;;;;;12.11;100.00;101292.78;4912352;29;20046;-77
2022/07/03 03:14:13;;;;;;;6.18;5.57;;;;;;;12.10;100.00;101299.81;4913210;28;20051;-79
2022/07/03 03:16:51;;;;;;;5.20;4.70;;;;;;;12.06;100.00;101289.31;4930895;29;20047;-77
2022/07/03 03:19:23;;;;;;;5.72;4.65;;;;;;;12.03;100.00;101297.34;4922921;28;20062;-76
2022/07/03 03:21:55;;;;;;;5.63;5.10;;;;;;;12.04;100.00;101296.44;4929517;29;20051;-77
2022/07/03 03:24:22;;;;;;;7.35;6.65;;;;;;;12.09;100.00;101291.91;4948934;28;20055;-78
2022/07/03 03:26:49;;;;;;;6.38;5.05;;;;;;;12.13;100.00;101284.81;4930830;29;20039;-79
2022/07/03 03:29:16;;;;;;;6.07;5.55;;;;;;;12.14;100.00;101290.06;4933847;28;20047;-78
2022/07/03 03:31:42;;;;;;;5.80;5.18;;;;;;;12.12;100.00;101289.22;4914756;29;20420;-78
2022/07/03 03:34:10;;;;;;;7.53;5.90;;;;;;;12.15;100.00;101283.88;4931717;28;20051;-77
2022/07/03 03:36:37;;;;;;;8.55;6.15;;;;;;;12.16;100.00;101284.75;4906997;29;20835;-79
2022/07/03 03:39:04;;;;;;;5.93;5.18;;;;;;;12.20;100.00;101286.47;4933885;29;20105;-76
2022/07/03 03:41:31;;;;;;;7.85;5.38;;;;;;;12.27;100.00;101293.38;4948040;28;20386;-79
2022/07/03 03:43:57;;;;;;;18.55;5.72;;;;;;;12.28;100.00;101285.41;4950373;28;20702;-77
2022/07/03 03:46:24;;;;;;;6.18;5.20;;;;;;;12.30;100.00;101288.91;4917506;28;20063;-77
2022/07/03 03:48:51;;;;;;;6.85;5.50;;;;;;;12.39;100.00;101291.41;4930079;29;20047;-76
2022/07/03 03:51:18;;;;;;;6.32;5.72;;;;;;;12.43;100.00;101288.69;4931363;29;21297;-78
2022/07/03 03:53:44;;;;;;;6.30;5.70;;;;;;;12.43;100.00;101286.03;4946740;28;20050;-77
2022/07/03 03:56:17;;;;;;;8.20;6.80;;;;;;;12.57;100.00;101287.53;4951653;28;20051;-78
2022/07/03 03:58:44;;;;;;;7.32;5.70;;;;;;;12.59;100.00;101285.72;4914992;29;20062;-77
2022/07/03 04:01:11;;;;;;;10.20;6.53;;;;;;;12.62;100.00;101285.69;4930648;28;20043;-78
2022/07/03 04:03:39;;;;;;;6.63;6.03;;;;;;;12.64;100.00;101278.56;4919183;29;20071;-76
2022/07/03 04:06:06;;;;;;;6.97;6.30;;;;;;;12.64;100.00;101285.66;4932205;29;20378;-79
2022/07/03 04:08:32;;;;;;;5.93;5.35;;;;;;;12.71;100.00;101284.63;4951543;28;20539;-75
2022/07/03 04:10:59;;;;;;;6.97;6.28;;;;;;;12.76;100.00;101280.09;4931970;29;20091;-76
2022/07/03 04:13:26;;;;;;;6.18;5.47;;;;;;;12.83;100.00;101279.06;4933207;28;20098;-77
2022/07/03 04:15:54;;;;;;;6.30;5.47;;;;;;;12.88;100.00;101268.38;4948647;28;20039;-76
2022/07/03 04:18:21;;;;;;;5.63;4.80;;;;;;;12.94;100.00;101265.59;4943258;28;20110;-78
2022/07/03 04:20:48;;;;;;;6.30;5.70;;;;;;;12.98;100.00;101263.75;4947644;28;20127;-78
2022/07/03 04:23:14;;;;;;;6.20;5.60;;;;;;;13.07;100.00;101271.53;4953750;28;20094;-77
2022/07/03 04:25:41;;;;;;;8.10;5.53;;;;;;;13.07;100.00;101255.63;4941139;29;20058;-77
2022/07/03 04:28:08;;;;;;;5.80;5.20;;;;;;;13.15;100.00;101254.53;4935874;28;20039;-77
2022/07/03 04:30:45;;;;;;;6.85;5.68;;;;;;;13.28;100.00;101252.50;4935679;29;20090;-76
2022/07/03 04:33:12;;;;;;;6.10;5.38;;;;;;;13.38;100.00;101248.75;4950920;28;20041;-76
2022/07/03 04:35:38;;;;;;;5.88;5.30;;;;;;;13.43;100.00;101259.25;4920785;29;20102;-77
2022/07/03 04:38:05;;;;;;;6.85;5.57;;;;;;;13.52;100.00;101256.41;4926038;29;20055;-76
2022/07/03 04:40:32;;;;;;;8.40;5.75;;;;;;;13.60;100.00;101253.56;4930659;29;20039;-77
2022/07/03 04:42:59;;;;;;;5.95;5.35;;;;;;;13.80;100.00;101256.63;4923670;28;20043;-78
2022/07/03 04:45:25;;;;;;;6.00;5.40;;;;;;;13.94;100.00;101257.16;4914688;29;20051;-76
2022/07/03 04:47:52;;;;;;;6.70;5.57;;;;;;;14.09;100.00;101256.78;4922199;29;20055;-78
2022/07/03 04:50:19;;;;;;;5.90;5.07;;;;;;;14.15;100.00;101257.53;4934696;28;20092;-79
2022/07/03 04:52:45;;;;;;;6.95;4.95;;;;;;;14.19;100.00;101253.88;4920681;29;20043;-76
2022/07/03 04:55:12;;;;;;;5.97;5.47;;;;;;;14.37;100.00;101258.69;4938203;28;20044;-79
2022/07/03 04:57:39;;;;;;;6.57;5.82;;;;;;;14.40;100.00;101253.31;4918811;29;20043;-78
2022/07/03 05:00:06;;;;;;;6.60;5.78;;;;;;;14.61;100.00;101252.75;4955363;28;20070;-79
2022/07/03 05:02:33;;;;;;;7.22;5.63;;;;;;;14.79;100.00;101248.69;4935058;29;20563;-79
2022/07/03 05:05:00;;;;;;;6.93;5.57;;;;;;;14.83;100.00;101247.72;4935796;29;20109;-78
2022/07/03 05:07:27;;;;;;;5.97;5.10;;;;;;;14.92;100.00;101246.56;4951915;28;20046;-76
2022/07/03 05:09:54;;;;;;;6.32;5.60;;;;;;;15.09;100.00;101248.75;4933692;29;20509;-79
2022/07/03 05:12:20;;;;;;;5.63;4.53;;;;;;;15.14;100.00;101241.50;4932905;28;20386;-77
2022/07/03 05:14:47;;;;;;;5.25;4.75;;;;;;;15.25;100.00;101243.84;4943800;28;20297;-76
2022/07/03 05:17:17;;;;;;;5.97;5.45;;;;;;;15.53;100.00;101242.03;4950894;28;20118;-77
2022/07/03 05:19:44;;;;;;;6.25;5.15;;;;;;;16.17;100.00;101237.31;4929097;29;20066;-76
2022/07/03 05:22:11;;;;;;;5.80;5.25;;;;;;;16.52;95.92;101233.38;4900525;28;20051;-77
2022/07/03 05:24:38;;;;;;;5.75;4.78;;;;;;;16.50;96.32;101231.72;4943821;28;20118;-76
2022/07/03 05:27:04;;;;;;;5.47;4.85;;;;;;;16.46;95.33;101225.59;4934856;29;20218;-77
2022/07/03 05:29:31;;;;;;;6.57;4.85;;;;;;;16.52;93.95;101235.19;4929792;29;20042;-77
2022/07/03 05:32:04;;;;;;;6.45;5.10;;;;;;;16.60;96.64;101223.31;4937045;28;20040;-78
2022/07/03 05:34:31;;;;;;;5.65;5.00;;;;;;;16.63;95.03;101233.00;4919603;28;20039;-77
2022/07/03 05:36:57;;;;;;;4.65;4.25;;;;;;;16.75;93.64;101223.72;4927096;29;20781;-78
2022/07/03 05:39:33;;;;;;;6.72;6.03;;;;;;;16.94;93.94;101230.09;4950422;29;20054;-79
2022/07/03 05:42:01;;;;;;;5.35;4.85;;;;;;;18.08;83.53;101229.16;4951145;29;20050;-77
2022/07/03 05:44:27;;;;;;;4.88;4.43;;;;;;;20.09;68.40;101222.38;4914210;29;20051;-77
2022/07/03 05:46:54;;;;;;;5.45;3.72;;;;;;;22.11;60.48;101231.00;4897142;29;20070;-77
2022/07/03 05:49:21;;;;;;;4.35;3.70;;;;;;;24.40;51.47;101231.59;4914305;28;20039;-77
2022/07/03 05:51:47;;;;;;;4.35;3.88;;;;;;;26.58;45.60;101242.56;4942828;28;20450;-78
2022/07/03 05:54:14;;;;;;;4.70;3.53;;;;;;;27.69;42.28;101232.69;4941663;28;20219;-77
2022/07/03 05:56:41;;;;;;;3.92;3.53;;;;;;;28.56;39.86;101241.56;4930061;29;20556;-77
2022/07/03 05:59:07;;;;;;;3.88;3.58;;;;;;;30.09;36.81;101235.09;4933297;29;20039;-78
2022/07/03 06:01:34;;;;;;;4.50;3.45;;;;;;;29.09;36.95;101236.00;4943903;29;20039;-77
2022/07/03 06:04:01;;;;;;;3.80;3.47;;;;;;;29.25;37.55;101230.03;4949051;28;20126;-77
2022/07/03 06:06:27;;;;;;;3.70;3.40;;;;;;;29.38;37.61;101229.78;4928584;29;20769;-78
2022/07/03 06:08:54;;;;;;;4.07;3.72;;;;;;;27.41;38.63;101217.81;4930752;29;20039;-79
2022/07/03 06:11:21;;;;;;;3.80;3.40;;;;;;;26.81;42.22;101229.88;4928066;28;20405;-80
2022/07/03 06:13:47;;;;;;;3.60;3.30;;;;;;;26.61;42.88;101230.59;4923715;29;20035;-80
2022/07/03 06:16:14;;;;;;;5.25;4.13;;;;;;;26.21;43.26;101227.38;4948437;28;20046;-78
2022/07/03 06:18:41;;;;;;;4.20;3.80;;;;;;;25.89;43.97;101225.28;4932950;29;20047;-79
2022/07/03 06:21:08;;;;;;;4.60;3.88;;;;;;;25.73;45.03;101227.44;4945881;28;20047;-78
2022/07/03 06:23:34;;;;;;;4.00;3.70;;;;;;;25.63;46.10;101223.66;4915696;29;20055;-79
2022/07/03 06:26:14;;;;;;;5.18;3.92;;;;;;;25.32;45.70;101216.97;4911656;28;20039;-79
2022/07/03 06:28:40;;;;;;;3.70;3.30;;;;;;;25.37;46.14;101220.16;4915442;29;20046;-78
2022/07/03 06:31:07;;;;;;;3.70;3.40;;;;;;;25.39;45.44;101212.78;4931526;29;20045;-78
2022/07/03 06:33:34;;;;;;;3.72;3.42;;;;;;;25.43;47.28;101211.59;4949595;28;20035;-78
2022/07/03 06:36:01;;;;;;;4.30;3.50;;;;;;;25.27;45.83;101209.16;4939660;28;20438;-78
2022/07/03 06:38:27;;;;;;;4.03;3.65;;;;;;;24.91;46.37;101207.28;4947549;28;20058;-78
2022/07/03 06:40:54;;;;;;;4.40;3.80;;;;;;;25.33;47.12;101202.44;4913656;29;20043;-78
2022/07/03 06:43:21;;;;;;;3.97;3.67;;;;;;;25.29;45.42;101192.81;4916819;28;20035;-78
2022/07/03 06:45:47;;;;;;;3.10;2.80;;;;;;;25.34;45.91;101191.50;4929685;28;20050;-77
2022/07/03 06:48:14;;;;;;;4.00;3.60;;;;;;;25.46;46.53;101196.00;4928452;28;20043;-79
2022/07/03 06:50:41;;;;;;;3.58;3.28;;;;;;;25.46;45.64;101198.72;4946182;28;20725;-78
2022/07/03 06:53:07;;;;;;;5.32;3.67;;;;;;;25.26;44.44;101189.38;4949148;28;20047;-78
2022/07/03 06:55:34;;;;;;;4.70;3.65;;;;;;;25.22;45.25;101187.88;4941549;28;20058;-78
2022/07/03 06:58:01;;;;;;;3.72;3.33;;;;;;;25.44;44.36;101186.28;4926162;29;20047;-78
2022/07/03 07:00:28;;;;;;;3.50;3.20;;;;;;;25.78;45.25;101187.34;4930838;29;20043;-78
2022/07/03 07:02:55;;;;;;;3.53;3.20;;;;;;;25.99;42.63;101177.59;4906580;29;21877;-77
2022/07/03 07:05:26;;;;;;;4.55;3.33;;;;;;;26.62;45.34;101180.81;4915040;28;20126;-78
2022/07/03 07:07:52;;;;;;;3.95;3.20;;;;;;;26.73;43.06;101175.41;4930950;29;20058;-78
2022/07/03 07:10:19;;;;;;;4.72;3.65;;;;;;;27.14;42.01;101176.66;4924707;29;20390;-78
2022/07/03 07:12:46;;;;;;;4.78;3.35;;;;;;;26.85;40.99;101177.13;4914792;28;20038;-78
2022/07/03 07:15:12;;;;;;;3.53;3.03;;;;;;;26.54;42.16;101167.03;4908303;28;20061;-78
2022/07/03 07:17:39;;;;;;;3.85;3.22;;;;;;;26.88;42.31;101167.88;4954289;28;20539;-78
2022/07/03 07:20:07;;;;;;;3.28;2.97;;;;;;;26.94;43.29;101160.13;4939211;29;20504;-81
2022/07/03 07:22:33;;;;;;;3.40;3.10;;;;;;;27.03;41.18;101154.94;4934380;29;20109;-78
2022/07/03 07:25:00;;;;;;;4.00;3.35;;;;;;;26.85;41.74;101157.31;4918052;29;20047;-79
2022/07/03 07:27:27;;;;;;;3.85;3.17;;;;;;;26.53;41.03;101151.75;4920462;28;20055;-77
2022/07/03 07:29:54;;;;;;;3.13;2.92;;;;;;;26.98;41.59;101154.44;4934580;29;20047;-78
2022/07/03 07:32:21;;;;;;;3.35;3.05;;;;;;;26.92;40.27;101147.69;4952970;28;20042;-79
2022/07/03 07:34:47;;;;;;;3.90;2.92;;;;;;;26.91;39.34;101146.81;4927706;29;20044;-79
2022/07/03 07:37:14;;;;;;;3.88;3.47;;;;;;;26.94;39.39;101153.84;4932486;29;20050;-78
2022/07/03 07:39:41;;;;;;;3.60;3.30;;;;;;;27.27;40.47;101161.09;4931051;28;20443;-78
2022/07/03 07:42:08;;;;;;;3.20;2.90;;;;;;;27.54;39.51;101159.78;4943784;28;20481;-78
2022/07/03 07:44:34;;;;;;;3.42;3.13;;;;;;;27.56;39.49;101160.50;4934235;29;20051;-80
2022/07/03 07:47:02;;;;;;;3.00;2.70;;;;;;;26.94;38.24;101143.00;4916463;29;20078;-77
2022/07/03 07:49:29;;;;;;;3.00;2.80;;;;;;;27.02;38.38;101143.22;4937803;28;20062;-77
2022/07/03 07:51:55;;;;;;;3.05;2.75;;;;;;;27.28;39.43;101146.53;4915898;28;20470;-78
2022/07/03 07:54:22;;;;;;;3.00;2.60;;;;;;;27.61;37.27;101148.28;4939884;29;20078;-79
2022/07/03 07:56:49;;;;;;;3.13;2.80;;;;;;;27.94;38.61;101144.59;4930695;29;20050;-79
2022/07/03 07:59:16;;;;;;;3.08;2.78;;;;;;;28.00;36.57;101149.50;4934735;28;20047;-78
2022/07/03 08:07:13;;;;;;;3.38;3.08;;;;;;;27.14;36.85;101135.97;4946196;28;20486;-80
2022/07/03 08:09:40;;;;;;;3.78;2.80;;;;;;;26.88;37.55;101130.78;4946473;28;20500;-78
2022/07/03 08:12:07;;;;;;;3.58;3.25;;;;;;;27.17;38.03;101143.84;4948741;28;20043;-79
2022/07/03 08:14:34;;;;;;;3.55;2.72;;;;;;;27.32;37.22;101136.28;4946221;28;20039;-78
2022/07/03 08:17:00;;;;;;;4.30;3.47;;;;;;;27.06;35.94;101133.88;4949317;29;20504;-78
2022/07/03 08:19:27;;;;;;;3.30;3.00;;;;;;;27.49;38.08;101135.72;4916700;28;20054;-78
2022/07/03 08:21:54;;;;;;;3.92;3.40;;;;;;;27.72;36.79;101141.97;4943876;28;20055;-78
2022/07/03 08:24:20;;;;;;;4.80;3.33;;;;;;;28.15;35.99;101127.41;4919032;28;20051;-79
2022/07/03 08:26:47;;;;;;;3.60;3.20;;;;;;;28.20;36.07;101131.47;4927403;28;20047;-78
2022/07/03 08:29:14;;;;;;;3.50;2.70;;;;;;;28.45;35.35;101140.22;4916731;28;20042;-79
2022/07/03 08:31:40;;;;;;;4.03;2.80;;;;;;;28.39;35.25;101128.00;4932631;29;20054;-77
2022/07/03 08:34:12;;;;;;;3.83;2.92;;;;;;;28.20;35.31;101133.31;4936617;28;20071;-78
2022/07/03 08:36:40;;;;;;;3.25;2.95;;;;;;;28.35;34.74;101128.44;4948866;28;20412;-77
2022/07/03 08:39:07;;;;;;;3.40;3.10;;;;;;;28.30;34.58;101121.53;4935532;28;20094;-79
2022/07/03 08:41:36;;;;;;;2.83;2.63;;;;;;;28.01;35.61;101128.63;4918332;29;20035;-80
2022/07/03 08:44:04;;;;;;;2.72;2.53;;;;;;;28.16;36.83;101138.13;5041602;23;20043;-78
2022/07/03 08:46:32;;;;;;;4.97;3.03;;;;;;;28.21;33.38;101125.03;4985302;28;20038;-78
2022/07/03 08:49:00;;;;;;;8.10;3.08;;;;;;;28.51;33.36;101121.50;4959351;28;20614;-76
2022/07/03 08:51:27;;;;;;;3.25;2.95;;;;;;;28.64;35.10;101126.69;4957023;28;20169;-77
2022/07/03 08:53:54;;;;;;;4.13;3.00;;;;;;;29.03;34.26;101116.00;4959357;28;20050;-78
2022/07/03 08:56:22;;;;;;;3.45;2.90;;;;;;;28.99;32.52;101125.41;4955596;28;20042;-78
2022/07/03 08:58:49;;;;;;;3.45;3.15;;;;;;;29.36;34.19;101117.47;4971348;28;20054;-78
2022/07/03 09:01:18;;;;;;;3.47;2.80;;;;;;;29.69;34.08;101129.84;4956646;28;20534;-79
2022/07/03 09:03:45;;;;;;;3.42;3.13;;;;;;;29.50;32.81;101121.66;4951503;28;20121;-77
2022/07/03 09:06:13;;;;;;;3.08;2.78;;;;;;;28.53;33.81;101127.66;4954073;28;20047;-78
2022/07/03 09:08:40;;;;;;;3.38;3.00;;;;;;;28.34;34.53;101108.56;4952584;28;20101;-78
2022/07/03 09:11:07;;;;;;;4.47;3.00;;;;;;;28.54;33.60;101118.50;4954412;28;20070;-78
2022/07/03 09:13:34;;;;;;;3.30;3.00;;;;;;;29.25;34.92;101120.31;4942693;28;20063;-79
2022/07/03 09:16:00;;;;;;;3.92;3.03;;;;;;;29.44;32.65;101115.78;4978097;28;20126;-80
2022/07/03 09:18:41;;;;;;;3.45;3.00;;;;;;;29.21;31.96;101108.88;4962345;28;20480;-79
2022/07/03 09:21:11;;;;;;;3.33;3.05;;;;;;;28.99;34.35;101115.38;4966926;28;20043;-78
2022/07/03 09:23:43;;;;;;;3.45;3.17;;;;;;;29.10;34.37;101109.84;4980256;28;20035;-79
2022/07/03 09:26:17;;;;;;;3.97;3.22;;;;;;;29.22;33.98;101105.13;4954913;28;20602;-81
2022/07/03 09:28:52;;;;;;;3.50;3.00;;;;;;;29.13;33.29;101095.09;4985988;28;20041;-79
2022/07/03 09:31:21;;;;;;;4.53;3.03;;;;;;;29.81;33.56;101104.16;4979402;28;20047;-78
2022/07/03 09:34:07;;;;;;;3.72;3.42;;;;;;;29.99;33.49;101096.13;4958305;28;20087;-80
2022/07/03 09:36:45;;;;;;;3.53;3.10;;;;;;;30.40;33.04;101094.03;4978439;28;20039;-78
2022/07/03 09:39:31;;;;;;;4.07;3.05;;;;;;;30.65;32.40;101098.81;4958234;28;20520;-80
2022/07/03 09:42:06;;;;;;;4.10;3.38;;;;;;;30.27;32.33;101097.97;4954630;28;20528;-78
2022/07/03 09:44:35;;;;;;;6.25;3.60;;;;;;;29.67;30.07;101100.00;4972832;28;20567;-80
2022/07/03 09:47:09;;;;;;;2.92;2.72;;;;;;;29.68;32.49;101096.31;4969902;28;20046;-79
2022/07/03 09:49:46;;;;;;;4.38;3.28;;;;;;;30.21;31.66;101092.22;4981704;28;20447;-79
2022/07/03 09:52:46;;;;;;;9.98;4.00;;;;;;;29.49;30.76;101084.53;4989443;28;20042;-77
2022/07/03 09:55:14;;;;;;;3.15;2.90;;;;;;;29.35;32.34;101067.63;4939803;28;20059;-77
2022/07/03 09:57:58;;;;;;;3.30;3.05;;;;;;;29.22;32.25;101082.50;4975665;28;20122;-78
2022/07/03 10:00:35;;;;;;;3.40;3.10;;;;;;;29.22;32.06;101091.53;4963899;28;21357;-79
2022/07/03 10:03:05;;;;;;;3.00;2.80;;;;;;;29.19;32.10;101083.66;4961990;28;20050;-80
2022/07/03 10:05:39;;;;;;;3.40;3.10;;;;;;;28.95;31.68;101080.47;4956768;28;20109;-79
2022/07/03 10:08:11;;;;;;;3.42;3.13;;;;;;;29.60;32.14;101082.56;4975541;28;20093;-78
2022/07/03 10:10:42;;;;;;;3.10;2.80;;;;;;;30.05;32.67;101076.47;4947068;28;20043;-77
2022/07/03 10:13:09;;;;;;;3.67;3.05;;;;;;;30.06;31.31;101083.63;4962181;28;20043;-78
2022/07/03 10:15:37;;;;;;;3.40;2.70;;;;;;;30.12;30.00;101071.31;4967197;28;20066;-79
2022/07/03 10:18:07;;;;;;;4.32;3.38;;;;;;;30.27;31.10;101065.25;4952120;28;20046;-79
2022/07/03 10:20:45;;;;;;;3.35;3.05;;;;;;;30.75;30.84;101069.63;4960610;28;20054;-78
2022/07/03 10:23:14;;;;;;;3.30;3.10;;;;;;;30.64;30.46;101067.06;4963190;28;20043;-78
2022/07/03 10:25:42;;;;;;;7.43;3.10;;;;;;;30.93;30.70;101066.06;4977738;28;20179;-78
2022/07/03 10:28:14;;;;;;;3.60;3.30;;;;;;;31.12;28.91;101063.22;4964664;28;20046;-78
2022/07/03 10:30:45;;;;;;;3.15;2.85;;;;;;;30.98;30.00;101058.28;4981371;28;20106;-79
2022/07/03 10:33:12;;;;;;;3.75;2.90;;;;;;;31.00;30.34;101061.72;4950589;28;20537;-77
2022/07/03 10:35:44;;;;;;;3.70;3.20;;;;;;;31.20;28.88;101062.47;4977261;28;20038;-78
2022/07/03 10:38:33;;;;;;;2.90;2.70;;;;;;;30.74;29.16;101061.59;4952475;28;21409;-78
2022/07/03 10:46:49;;;;;;;3.42;3.13;;;;;;;29.57;30.38;101044.72;4990799;28;20038;-77
2022/07/03 10:49:23;;;;;;;;;;;;;;;30.19;29.80;101037.03;4970638;28;20041;-77
2022/07/03 10:52:03;;;;;;;6.47;5.78;;;;;;;30.27;29.15;101043.44;4964098;28;19929;-78
2022/07/03 10:54:36;;;;;;;31.38;28.83;;;;;;;30.43;30.66;101039.19;4986694;28;20593;-78
2022/07/03 10:57:03;;;;;;;44.00;40.83;;;;;;;30.69;29.93;101029.34;4972185;28;20043;-78
2022/07/03 10:59:36;;;;;;;21.40;19.95;;;;;;;31.22;29.83;101028.56;4972626;28;20046;-78
2022/07/03 11:02:22;;;;;;;16.85;11.93;;;;;;;31.02;29.20;101030.53;4961055;28;20049;-77
2022/07/03 11:05:01;;;;;;;4.72;3.40;;;;;;;31.14;29.16;101022.97;4956121;28;20109;-80
2022/07/03 11:07:31;;;;;;;3.22;2.95;;;;;;;31.00;29.09;101020.78;4967553;28;20042;-78
2022/07/03 11:10:13;;;;;;;3.53;2.90;;;;;;;31.24;29.77;101025.66;4928863;28;20045;-78
2022/07/03 11:12:55;;;;;;;3.60;2.70;;;;;;;31.16;27.79;101009.19;4979798;28;20446;-79
2022/07/03 11:15:27;;;;;;;3.72;3.00;;;;;;;30.63;29.11;101002.63;4967051;28;20041;-79
2022/07/03 11:18:13;;;;;;;3.47;3.17;;;;;;;30.69;28.66;101006.63;4982538;28;20051;-79
2022/07/03 11:20:40;;;;;;;13.20;4.60;;;;;;;31.05;29.72;101008.41;4968270;28;20133;-78
2022/07/03 11:23:09;;;;;;;2.90;2.70;;;;;;;31.40;28.76;101005.84;4965449;28;20110;-77
2022/07/03 11:25:59;;;;;;;3.78;2.90;;;;;;;30.25;28.35;101001.81;4967863;28;20126;-78
2022/07/03 11:28:32;;;;;;;4.15;3.10;;;;;;;30.51;29.48;101009.28;4945203;28;20500;-78
2022/07/03 11:31:10;;;;;;;3.47;2.97;;;;;;;30.55;28.48;101008.84;4983307;28;20575;-79
2022/07/03 11:33:53;;;;;;;2.97;2.70;;;;;;;30.79;30.28;101002.00;4968586;28;20043;-79
2022/07/03 11:36:29;;;;;;;3.10;2.90;;;;;;;31.09;30.84;100990.69;4965799;28;20418;-78
2022/07/03 11:38:58;;;;;;;2.75;2.50;;;;;;;31.33;28.68;100990.09;4973397;28;20046;-79
2022/07/03 11:41:27;;;;;;;3.00;2.70;;;;;;;31.51;27.93;100997.38;4969125;28;20039;-79
2022/07/03 11:43:56;;;;;;;2.78;2.58;;;;;;;31.54;28.17;100987.03;4953938;28;20040;-77
2022/07/03 11:46:25;;;;;;;5.05;2.85;;;;;;;31.56;28.19;100982.25;4953121;28;20098;-78
2022/07/03 11:49:12;;;;;;;2.78;2.58;;;;;;;31.81;27.58;100976.97;4956152;28;20042;-78